Aérodrome :
LOGIN :

S'inscrire | Disclaimer

   EN    FR    IT 

 










Légende :    VFR   VFR Marginal   IFR   IFR Intensif   IFR Très Intensif
Visi : 
Plafond : 
>= 8 km
>= 3000ft
5 à 8 km
1000 à 3000 ft
1500m à 5 km
500 à 1000 ft
800 à 1500m
200 à 500 ft
< 800m
< 200 ft
Symboles :   Orages  Brouillard  Fortes neiges  Fortes précipitations  Vent > 20 kt
SIGMETs :   Divers  Orages  Givrage  Turbulence  Onde Orograph.  Cendres Volcan.






- Altitude de l'aérodrome : 2697 ft
- Code IATA : BLJ


DABT - Batna

DERNIER METAR :
  • 282200Z 32004KT 9999 FEW026 SCT030 19/08 Q1022

METARs EXPIRÉS :
  • 282100Z 27008KT 9999 FEW026 SCT030 21/07 Q1022
  • 282000Z 27005KT 9999 FEW026 SCT030 22/06 Q1022

TAF TAF DABT
Valide du 28 à 18h jusqu'au 29 à 18h UTC


281700Z 2818/2918 26009KT 9999 FEW026 SCT100
PROB30
TEMPO 2818/2822 FEW023CB
PROB40
TEMPO 2904/2912 FEW023TCU
TEMPO 2914/2918 5000 -TSRA FEW020CB BKN020



MET'MAP, la Météo Aéronautique d'un coup d'oeil ! - Copyright ORBIFLY Décembre 2007 - Disclaimer

ORBIFLY MET'MAP TEAM :

Programmation & Développement : Alexandra Zaïnal
Sur une idée originale de : Baudouin d'Aumeries
Assistance à la programmation : Marc-Olivier Méhu
Soutien technique & logistique : Manuel Goepfert

Contact : metmap@orbifly.com




SOURCES & CREDITS :

   NOAA